PUEBLO AVIATION WEATHER

 


 

 

Check out the latest edition of "The Front" - A Regional Newsletter dedicated to Aviation Weather

Aviation Weather Center Standard Briefing 

 


 

 

Colorado Springs Airport(KCOS) Aviation Decision Support Information Page  

 

 

  Terminal Aerodrome Forecasts

Interactive TAF Java Tool

Plotted TAFs and/or Text TAFs

Text TAFs

Pueblo KPUB

000
FTUS45 KPUB 300520
TAFPUB
TAF
KPUB 300520Z 3006/3106 VRB05KT P6SM VCSH SCT012 BKN040 OVC100
      TEMPO 3006/3008 -SHRA BKN025 OVC040
     FM300900 VRB05KT P6SM SCT012 BKN080
      TEMPO 3010/3014 3SM BR OVC012
     FM301500 VRB05KT P6SM SCT025 BKN050
     FM302100 10009KT P6SM VCTS BKN040CB=
Colorado Springs KCOS
000
FTUS45 KPUB 300520
TAFCOS
TAF
KCOS 300520Z 3006/3106 05007KT P6SM VCSH SCT012 OVC050
      TEMPO 3006/3007 -SHRA BKN012
     FM300700 VRB05KT P6SM SCT008 OVC015
      TEMPO 3009/3013 2SM BR OVC008
     FM301500 10007KT P6SM SCT020 BKN050
     FM301800 09012KT P6SM VCTS SCT030CB BKN050
      TEMPO 3020/3024 4SM TSRA BKN025CB OVC050=
Alamosa KALS

000
FTUS45 KPUB 300520
TAFALS
TAF
KALS 300520Z 3006/3106 21005KT P6SM SCT100 BKN200
     FM300700 VRB05KT P6SM SCT020
      TEMPO 3010/3014 2SM BR OVC005
     FM301500 VRB05KT P6SM SCT080
     FM302000 10009KT P6SM SCT060 BKN100
     FM302200 09012KT P6SM VCTS SCT050CB BKN080=
Denver KDEN

000
FTUS45 KBOU 300538
TAFDEN
TAF
KDEN 300538Z 3006/3112 06006KT 3SM RA BR FEW005 BKN025 OVC040
      TEMPO 3006/3010 2SM RA BR SCT012 BKN025
     FM301000 04007KT P6SM FEW007 BKN015 OVC035
      TEMPO 3010/3014 3SM SHRA BR BKN006 OVC014
     FM301400 04012KT P6SM FEW006 BKN012 OVC030
      TEMPO 3014/3017 4SM SHRA BR BKN008 OVC016
     FM301900 02012KT P6SM SCT025 OVC035
      TEMPO 3020/3024 -TSRA BKN025CB
     FM310000 35008KT P6SM SCT035 BKN060 PROB30 3100/3105 -SHRA
      BKN040
     FM310600 22008KT P6SM SCT045 BKN080=
  

 

Pilot Reports (PIREPs)

Aircraft Icing U.S. NESE
NCSC
NWSW
Sky Conditions U.S. NESE
NCSC
NWSW
Turbulence U.S. NESE
NCSC
NWSW

 

SOARING FORECAST

Experimental product for soaring guidance, Southern Front Range

 

 

 

METARS:

Pueblo


Colorado Springs


Denver

Alamosa


 

 


 

 

 

 

RADAR AND SATELLITE

radar
pueblo radar
 

 

Latest Radar from Pueblo
Click Image to Enlarge

 

IR Satellite
Colorado Infrared Satellite - Click to enlarge
Latest Colorado IR Satellite Image
Click Image to Enlarge
Vis Satellite
Colorado Visible Satellite - Click to enlarge
Latest Colorado Visible Satellite Image
Click Image to Enlarge

 

WATCHES AND WARNINGS

TEXT OF ALL COLORADO WARNINGS

 

Latest Watches And Warnings

 

 

CENTER WEATHER ADVISORIES

 

AIRMETS/SIGMETS

 

 

 


 

FORECAST DISCUSSION: FA

 

 


 

OBSERVED UPPER AIR WINDS

(COURTESY RAP/NCAR)

 

 


 

FORECAST UPPER AIR WINDS

 

 


 

SURFACE OBSERVATIONS

(COURTESY RAP/NCAR)

 

 

 :

 

NOTAMS:

https://www.notams.jcs.mil/geo/radiusForm.html

 

 

 

 

 

 

 

 

 

 

 

 

 

 

 

 


 

 

Constant Pressure Plots From the Storm Prediction Center

Link to the Sky Spotter Program Homepage

 

Other Aviation Links

NWS Aviation Weather Center

ADDS - Aviation Page
FAA Homepage

 


 

 

 

 

 

 

 

 

 

 

 

 

 

 

 

 

 

 

 

 

 

 

 

 

 

 

 

 

 

 

 

 

 

Plots of AIRMETS / SIGMETS

Text AIRMETS / SIGMETS by Center 

Interactive AIRMET/SIGMET Java Tool

 

 



USA.gov is the U.S. government's official web portal to all federal, state and local government web resources and services.